createdAt,value
2023-01-19T00:08:15.148Z,479
2023-01-19T00:38:11.919Z,483
2023-01-19T02:38:10.636Z,486
2023-01-19T03:38:04.329Z,471
2023-01-19T04:08:06.028Z,467
2023-01-19T04:38:13.276Z,464
2023-01-19T05:08:11.222Z,465
2023-01-19T05:38:09.201Z,471
2023-01-19T06:08:12.815Z,473
2023-01-19T07:08:03.775Z,469
2023-01-19T07:38:10.008Z,472
2023-01-19T08:08:01.588Z,466
2023-01-19T08:38:05.050Z,462
2023-01-19T09:08:06.635Z,462
2023-01-19T09:38:06.680Z,459
2023-01-19T10:08:12.610Z,461
2023-01-19T10:38:01.800Z,457
2023-01-19T11:08:05.632Z,454
2023-01-19T11:38:09.321Z,454
2023-01-19T12:08:02.139Z,449
2023-01-19T12:38:00.467Z,453
2023-01-19T13:07:58.424Z,452
2023-01-19T13:38:16.293Z,449
2023-01-19T14:08:15.077Z,450
2023-01-19T14:38:02.027Z,452
2023-01-19T15:08:17.933Z,462
2023-01-19T15:38:07.139Z,459
2023-01-19T17:38:05.817Z,458
2023-01-19T18:08:03.410Z,457
2023-01-19T18:38:13.297Z,458
2023-01-19T19:07:55.408Z,459
2023-01-19T19:38:00.924Z,456
2023-01-19T20:08:00.820Z,457
2023-01-19T20:38:07.681Z,464
2023-01-19T21:08:03.507Z,454
2023-01-19T21:38:03.440Z,457
2023-01-19T22:08:00.938Z,462
2023-01-19T22:38:02.542Z,450
2023-01-19T23:07:58.324Z,456
2023-01-19T23:38:21.657Z,460
